sensor_id;sensor_type;location;lat;lon;timestamp;P1;durP1;ratioP1;P2;durP2;ratioP2
20655;SDS011;10487;53.320;8.672;2023-04-06T00:01:11;0.20;;;0.20;;
20655;SDS011;10487;53.320;8.672;2023-04-06T00:04:13;0.30;;;0.30;;
20655;SDS011;10487;53.320;8.672;2023-04-06T00:07:14;0.20;;;0.20;;
20655;SDS011;10487;53.320;8.672;2023-04-06T00:10:16;0.20;;;0.20;;
20655;SDS011;10487;53.320;8.672;2023-04-06T00:13:18;0.30;;;0.30;;
20655;SDS011;10487;53.320;8.672;2023-04-06T00:16:20;0.20;;;0.20;;
20655;SDS011;10487;53.320;8.672;2023-04-06T00:19:24;0.20;;;0.20;;
20655;SDS011;10487;53.320;8.672;2023-04-06T00:22:26;0.28;;;0.28;;
20655;SDS011;10487;53.320;8.672;2023-04-06T00:25:28;0.20;;;0.20;;
20655;SDS011;10487;53.320;8.672;2023-04-06T00:28:29;0.20;;;0.20;;
20655;SDS011;10487;53.320;8.672;2023-04-06T00:31:31;0.20;;;0.20;;
20655;SDS011;10487;53.320;8.672;2023-04-06T00:34:32;0.30;;;0.30;;
20655;SDS011;10487;53.320;8.672;2023-04-06T00:37:34;0.20;;;0.20;;
20655;SDS011;10487;53.320;8.672;2023-04-06T00:40:36;0.22;;;0.20;;
20655;SDS011;10487;53.320;8.672;2023-04-06T00:43:37;0.20;;;0.20;;
20655;SDS011;10487;53.320;8.672;2023-04-06T00:46:39;0.30;;;0.30;;
20655;SDS011;10487;53.320;8.672;2023-04-06T00:49:41;0.20;;;0.20;;
20655;SDS011;10487;53.320;8.672;2023-04-06T00:52:42;0.20;;;0.20;;
20655;SDS011;10487;53.320;8.672;2023-04-06T00:55:44;0.20;;;0.20;;
20655;SDS011;10487;53.320;8.672;2023-04-06T00:58:46;0.20;;;0.20;;
20655;SDS011;10487;53.320;8.672;2023-04-06T01:01:47;0.30;;;0.30;;
20655;SDS011;10487;53.320;8.672;2023-04-06T01:04:49;0.30;;;0.30;;
20655;SDS011;10487;53.320;8.672;2023-04-06T01:07:51;0.40;;;0.20;;
20655;SDS011;10487;53.320;8.672;2023-04-06T01:10:52;0.30;;;0.20;;
20655;SDS011;10487;53.320;8.672;2023-04-06T01:13:54;0.30;;;0.30;;
20655;SDS011;10487;53.320;8.672;2023-04-06T01:16:57;0.20;;;0.20;;
20655;SDS011;10487;53.320;8.672;2023-04-06T01:19:59;0.28;;;0.28;;
20655;SDS011;10487;53.320;8.672;2023-04-06T01:23:01;0.30;;;0.30;;
20655;SDS011;10487;53.320;8.672;2023-04-06T01:26:03;0.20;;;0.20;;
20655;SDS011;10487;53.320;8.672;2023-04-06T01:29:05;0.20;;;0.20;;
20655;SDS011;10487;53.320;8.672;2023-04-06T01:32:07;0.20;;;0.20;;
20655;SDS011;10487;53.320;8.672;2023-04-06T01:35:09;0.30;;;0.30;;
20655;SDS011;10487;53.320;8.672;2023-04-06T01:38:10;0.20;;;0.20;;
20655;SDS011;10487;53.320;8.672;2023-04-06T01:41:12;0.20;;;0.20;;
20655;SDS011;10487;53.320;8.672;2023-04-06T01:44:17;0.30;;;0.30;;
20655;SDS011;10487;53.320;8.672;2023-04-06T01:47:22;0.20;;;0.20;;
20655;SDS011;10487;53.320;8.672;2023-04-06T01:50:24;0.20;;;0.20;;
20655;SDS011;10487;53.320;8.672;2023-04-06T01:53:25;0.20;;;0.20;;
20655;SDS011;10487;53.320;8.672;2023-04-06T01:56:27;0.30;;;0.30;;
20655;SDS011;10487;53.320;8.672;2023-04-06T01:59:28;0.30;;;0.30;;
20655;SDS011;10487;53.320;8.672;2023-04-06T02:02:30;0.22;;;0.22;;
20655;SDS011;10487;53.320;8.672;2023-04-06T02:05:32;0.20;;;0.20;;
20655;SDS011;10487;53.320;8.672;2023-04-06T02:08:39;0.20;;;0.20;;
20655;SDS011;10487;53.320;8.672;2023-04-06T02:11:40;0.28;;;0.28;;
20655;SDS011;10487;53.320;8.672;2023-04-06T02:14:42;0.20;;;0.20;;
20655;SDS011;10487;53.320;8.672;2023-04-06T02:17:43;0.30;;;0.30;;
20655;SDS011;10487;53.320;8.672;2023-04-06T02:20:46;0.20;;;0.20;;
20655;SDS011;10487;53.320;8.672;2023-04-06T02:23:47;0.30;;;0.30;;
20655;SDS011;10487;53.320;8.672;2023-04-06T02:26:50;0.20;;;0.20;;
20655;SDS011;10487;53.320;8.672;2023-04-06T02:29:52;0.20;;;0.20;;
20655;SDS011;10487;53.320;8.672;2023-04-06T02:32:53;0.20;;;0.20;;
20655;SDS011;10487;53.320;8.672;2023-04-06T02:35:55;0.22;;;0.22;;
20655;SDS011;10487;53.320;8.672;2023-04-06T02:38:57;0.38;;;0.32;;
20655;SDS011;10487;53.320;8.672;2023-04-06T02:41:59;0.30;;;0.30;;
20655;SDS011;10487;53.320;8.672;2023-04-06T02:45:01;0.20;;;0.20;;
20655;SDS011;10487;53.320;8.672;2023-04-06T02:48:03;0.30;;;0.30;;
20655;SDS011;10487;53.320;8.672;2023-04-06T02:51:05;0.25;;;0.25;;
20655;SDS011;10487;53.320;8.672;2023-04-06T02:54:07;0.30;;;0.30;;
20655;SDS011;10487;53.320;8.672;2023-04-06T02:57:08;0.30;;;0.30;;
20655;SDS011;10487;53.320;8.672;2023-04-06T03:00:10;0.30;;;0.30;;
20655;SDS011;10487;53.320;8.672;2023-04-06T03:03:13;0.30;;;0.30;;
20655;SDS011;10487;53.320;8.672;2023-04-06T03:06:15;0.22;;;0.22;;
20655;SDS011;10487;53.320;8.672;2023-04-06T03:09:16;0.30;;;0.30;;
20655;SDS011;10487;53.320;8.672;2023-04-06T03:12:18;0.22;;;0.22;;
20655;SDS011;10487;53.320;8.672;2023-04-06T03:15:20;0.30;;;0.30;;
20655;SDS011;10487;53.320;8.672;2023-04-06T03:18:22;0.30;;;0.30;;
20655;SDS011;10487;53.320;8.672;2023-04-06T03:21:25;0.20;;;0.20;;
20655;SDS011;10487;53.320;8.672;2023-04-06T03:24:26;0.40;;;0.30;;
20655;SDS011;10487;53.320;8.672;2023-04-06T03:27:28;0.30;;;0.30;;
20655;SDS011;10487;53.320;8.672;2023-04-06T03:30:30;0.30;;;0.30;;
20655;SDS011;10487;53.320;8.672;2023-04-06T03:33:32;0.30;;;0.30;;
20655;SDS011;10487;53.320;8.672;2023-04-06T03:36:34;0.30;;;0.30;;
20655;SDS011;10487;53.320;8.672;2023-04-06T03:39:36;0.40;;;0.30;;
20655;SDS011;10487;53.320;8.672;2023-04-06T03:42:37;0.30;;;0.30;;
20655;SDS011;10487;53.320;8.672;2023-04-06T03:45:39;0.25;;;0.25;;
20655;SDS011;10487;53.320;8.672;2023-04-06T03:48:41;0.30;;;0.30;;
20655;SDS011;10487;53.320;8.672;2023-04-06T03:51:42;0.30;;;0.30;;
20655;SDS011;10487;53.320;8.672;2023-04-06T03:54:44;0.30;;;0.30;;
20655;SDS011;10487;53.320;8.672;2023-04-06T03:57:45;0.38;;;0.38;;
20655;SDS011;10487;53.320;8.672;2023-04-06T04:00:47;0.30;;;0.30;;
20655;SDS011;10487;53.320;8.672;2023-04-06T04:03:49;0.30;;;0.30;;
20655;SDS011;10487;53.320;8.672;2023-04-06T04:06:52;0.30;;;0.30;;
20655;SDS011;10487;53.320;8.672;2023-04-06T04:09:53;0.30;;;0.30;;
20655;SDS011;10487;53.320;8.672;2023-04-06T04:12:55;0.30;;;0.30;;
20655;SDS011;10487;53.320;8.672;2023-04-06T04:15:57;0.30;;;0.30;;
20655;SDS011;10487;53.320;8.672;2023-04-06T04:18:59;0.30;;;0.30;;
20655;SDS011;10487;53.320;8.672;2023-04-06T04:22:00;0.30;;;0.30;;
20655;SDS011;10487;53.320;8.672;2023-04-06T04:25:05;0.30;;;0.30;;
20655;SDS011;10487;53.320;8.672;2023-04-06T04:28:07;0.30;;;0.30;;
20655;SDS011;10487;53.320;8.672;2023-04-06T04:31:08;0.30;;;0.30;;
20655;SDS011;10487;53.320;8.672;2023-04-06T04:34:10;0.25;;;0.25;;
20655;SDS011;10487;53.320;8.672;2023-04-06T04:37:12;0.40;;;0.40;;
20655;SDS011;10487;53.320;8.672;2023-04-06T04:40:13;0.30;;;0.30;;
20655;SDS011;10487;53.320;8.672;2023-04-06T04:43:15;0.28;;;0.28;;
20655;SDS011;10487;53.320;8.672;2023-04-06T04:46:17;0.35;;;0.35;;
20655;SDS011;10487;53.320;8.672;2023-04-06T04:49:19;0.60;;;0.40;;
20655;SDS011;10487;53.320;8.672;2023-04-06T04:52:20;0.30;;;0.30;;
20655;SDS011;10487;53.320;8.672;2023-04-06T04:55:22;0.30;;;0.30;;
20655;SDS011;10487;53.320;8.672;2023-04-06T04:58:23;0.40;;;0.40;;
20655;SDS011;10487;53.320;8.672;2023-04-06T05:01:25;0.30;;;0.30;;
20655;SDS011;10487;53.320;8.672;2023-04-06T05:04:27;0.20;;;0.20;;
20655;SDS011;10487;53.320;8.672;2023-04-06T05:07:28;0.30;;;0.30;;
20655;SDS011;10487;53.320;8.672;2023-04-06T05:10:30;0.30;;;0.30;;
20655;SDS011;10487;53.320;8.672;2023-04-06T05:13:32;0.30;;;0.30;;
20655;SDS011;10487;53.320;8.672;2023-04-06T05:16:33;0.32;;;0.32;;
20655;SDS011;10487;53.320;8.672;2023-04-06T05:19:35;0.30;;;0.30;;
20655;SDS011;10487;53.320;8.672;2023-04-06T05:22:37;0.30;;;0.30;;
20655;SDS011;10487;53.320;8.672;2023-04-06T05:25:38;0.40;;;0.40;;
20655;SDS011;10487;53.320;8.672;2023-04-06T05:28:40;0.50;;;0.40;;
20655;SDS011;10487;53.320;8.672;2023-04-06T05:31:43;0.40;;;0.40;;
20655;SDS011;10487;53.320;8.672;2023-04-06T05:34:45;0.43;;;0.40;;
20655;SDS011;10487;53.320;8.672;2023-04-06T05:37:47;0.50;;;0.50;;
20655;SDS011;10487;53.320;8.672;2023-04-06T05:40:48;0.40;;;0.40;;
20655;SDS011;10487;53.320;8.672;2023-04-06T05:43:50;0.50;;;0.50;;
20655;SDS011;10487;53.320;8.672;2023-04-06T05:46:51;0.30;;;0.30;;
20655;SDS011;10487;53.320;8.672;2023-04-06T05:49:53;0.55;;;0.47;;
20655;SDS011;10487;53.320;8.672;2023-04-06T05:52:55;0.50;;;0.50;;
20655;SDS011;10487;53.320;8.672;2023-04-06T05:55:57;0.40;;;0.40;;
20655;SDS011;10487;53.320;8.672;2023-04-06T05:59:02;0.40;;;0.40;;
20655;SDS011;10487;53.320;8.672;2023-04-06T06:02:03;0.40;;;0.40;;
20655;SDS011;10487;53.320;8.672;2023-04-06T06:05:05;0.40;;;0.40;;
20655;SDS011;10487;53.320;8.672;2023-04-06T06:08:07;0.40;;;0.40;;
20655;SDS011;10487;53.320;8.672;2023-04-06T06:11:09;0.50;;;0.45;;
20655;SDS011;10487;53.320;8.672;2023-04-06T06:14:10;0.55;;;0.55;;
20655;SDS011;10487;53.320;8.672;2023-04-06T06:17:12;0.43;;;0.43;;
20655;SDS011;10487;53.320;8.672;2023-04-06T06:20:16;0.50;;;0.40;;
20655;SDS011;10487;53.320;8.672;2023-04-06T06:23:18;0.80;;;0.80;;
20655;SDS011;10487;53.320;8.672;2023-04-06T06:26:19;0.50;;;0.50;;
20655;SDS011;10487;53.320;8.672;2023-04-06T06:29:21;0.65;;;0.50;;
20655;SDS011;10487;53.320;8.672;2023-04-06T06:32:25;0.50;;;0.50;;
20655;SDS011;10487;53.320;8.672;2023-04-06T06:35:27;0.77;;;0.70;;
20655;SDS011;10487;53.320;8.672;2023-04-06T06:38:29;0.60;;;0.60;;
20655;SDS011;10487;53.320;8.672;2023-04-06T06:41:30;0.60;;;0.60;;
20655;SDS011;10487;53.320;8.672;2023-04-06T06:44:32;0.70;;;0.70;;
20655;SDS011;10487;53.320;8.672;2023-04-06T06:47:34;0.82;;;0.55;;
20655;SDS011;10487;53.320;8.672;2023-04-06T06:50:35;0.60;;;0.60;;
20655;SDS011;10487;53.320;8.672;2023-04-06T06:53:37;0.55;;;0.52;;
20655;SDS011;10487;53.320;8.672;2023-04-06T06:56:39;1.35;;;0.82;;
20655;SDS011;10487;53.320;8.672;2023-04-06T06:59:41;1.10;;;0.60;;
20655;SDS011;10487;53.320;8.672;2023-04-06T07:02:42;0.40;;;0.40;;
20655;SDS011;10487;53.320;8.672;2023-04-06T07:05:48;0.70;;;0.70;;
20655;SDS011;10487;53.320;8.672;2023-04-06T07:08:54;0.70;;;0.70;;
20655;SDS011;10487;53.320;8.672;2023-04-06T07:11:56;0.80;;;0.65;;
20655;SDS011;10487;53.320;8.672;2023-04-06T07:14:57;0.50;;;0.50;;
20655;SDS011;10487;53.320;8.672;2023-04-06T07:17:59;0.80;;;0.80;;
20655;SDS011;10487;53.320;8.672;2023-04-06T07:21:01;0.93;;;0.63;;
20655;SDS011;10487;53.320;8.672;2023-04-06T07:24:02;0.75;;;0.75;;
20655;SDS011;10487;53.320;8.672;2023-04-06T07:27:04;0.70;;;0.70;;
20655;SDS011;10487;53.320;8.672;2023-04-06T07:30:06;0.90;;;0.70;;
20655;SDS011;10487;53.320;8.672;2023-04-06T07:33:08;1.42;;;1.20;;
20655;SDS011;10487;53.320;8.672;2023-04-06T07:36:10;1.25;;;0.85;;
20655;SDS011;10487;53.320;8.672;2023-04-06T07:39:12;0.80;;;0.77;;
20655;SDS011;10487;53.320;8.672;2023-04-06T07:42:13;0.80;;;0.70;;
20655;SDS011;10487;53.320;8.672;2023-04-06T07:45:15;0.82;;;0.80;;
20655;SDS011;10487;53.320;8.672;2023-04-06T07:48:17;0.63;;;0.63;;
20655;SDS011;10487;53.320;8.672;2023-04-06T07:51:18;1.02;;;0.90;;
20655;SDS011;10487;53.320;8.672;2023-04-06T07:54:20;1.05;;;0.95;;
20655;SDS011;10487;53.320;8.672;2023-04-06T07:57:22;1.08;;;0.93;;
20655;SDS011;10487;53.320;8.672;2023-04-06T08:00:24;1.52;;;1.42;;
20655;SDS011;10487;53.320;8.672;2023-04-06T08:03:26;1.42;;;0.90;;
20655;SDS011;10487;53.320;8.672;2023-04-06T08:06:28;0.80;;;0.75;;
20655;SDS011;10487;53.320;8.672;2023-04-06T08:09:29;0.70;;;0.70;;
20655;SDS011;10487;53.320;8.672;2023-04-06T08:12:32;0.80;;;0.70;;
20655;SDS011;10487;53.320;8.672;2023-04-06T08:15:35;0.80;;;0.68;;
20655;SDS011;10487;53.320;8.672;2023-04-06T08:18:36;0.95;;;0.80;;
20655;SDS011;10487;53.320;8.672;2023-04-06T08:21:38;1.30;;;1.02;;
20655;SDS011;10487;53.320;8.672;2023-04-06T08:24:41;0.80;;;0.80;;
20655;SDS011;10487;53.320;8.672;2023-04-06T08:27:43;0.70;;;0.70;;
20655;SDS011;10487;53.320;8.672;2023-04-06T08:30:44;0.98;;;0.88;;
20655;SDS011;10487;53.320;8.672;2023-04-06T08:33:46;0.60;;;0.60;;
20655;SDS011;10487;53.320;8.672;2023-04-06T08:36:48;1.20;;;1.00;;
20655;SDS011;10487;53.320;8.672;2023-04-06T08:39:49;0.98;;;0.90;;
20655;SDS011;10487;53.320;8.672;2023-04-06T08:42:55;1.00;;;0.90;;
20655;SDS011;10487;53.320;8.672;2023-04-06T08:45:58;1.85;;;0.98;;
20655;SDS011;10487;53.320;8.672;2023-04-06T08:49:01;1.80;;;1.25;;
20655;SDS011;10487;53.320;8.672;2023-04-06T08:52:04;0.93;;;0.82;;
20655;SDS011;10487;53.320;8.672;2023-04-06T08:55:11;1.00;;;0.90;;
20655;SDS011;10487;53.320;8.672;2023-04-06T08:58:13;1.27;;;1.00;;
20655;SDS011;10487;53.320;8.672;2023-04-06T09:01:28;1.38;;;0.90;;
20655;SDS011;10487;53.320;8.672;2023-04-06T09:04:31;1.02;;;0.93;;
20655;SDS011;10487;53.320;8.672;2023-04-06T09:07:34;1.08;;;0.95;;
20655;SDS011;10487;53.320;8.672;2023-04-06T09:10:40;1.23;;;0.80;;
20655;SDS011;10487;53.320;8.672;2023-04-06T09:13:45;1.20;;;1.10;;
20655;SDS011;10487;53.320;8.672;2023-04-06T09:16:48;1.55;;;1.00;;
20655;SDS011;10487;53.320;8.672;2023-04-06T09:19:50;1.25;;;1.00;;
20655;SDS011;10487;53.320;8.672;2023-04-06T09:22:52;0.93;;;0.70;;
20655;SDS011;10487;53.320;8.672;2023-04-06T09:29:21;0.98;;;0.70;;
20655;SDS011;10487;53.320;8.672;2023-04-06T09:32:23;1.10;;;0.80;;
20655;SDS011;10487;53.320;8.672;2023-04-06T09:35:25;1.02;;;0.93;;
20655;SDS011;10487;53.320;8.672;2023-04-06T09:38:31;0.73;;;0.73;;
20655;SDS011;10487;53.320;8.672;2023-04-06T09:41:34;0.82;;;0.80;;
20655;SDS011;10487;53.320;8.672;2023-04-06T09:44:36;0.93;;;0.70;;
20655;SDS011;10487;53.320;8.672;2023-04-06T09:47:39;0.40;;;0.40;;
20655;SDS011;10487;53.320;8.672;2023-04-06T09:50:43;0.90;;;0.57;;
20655;SDS011;10487;53.320;8.672;2023-04-06T09:53:45;0.98;;;0.82;;
20655;SDS011;10487;53.320;8.672;2023-04-06T09:56:58;1.00;;;0.80;;
20655;SDS011;10487;53.320;8.672;2023-04-06T10:00:06;0.95;;;0.73;;
20655;SDS011;10487;53.320;8.672;2023-04-06T10:06:46;1.00;;;0.90;;
20655;SDS011;10487;53.320;8.672;2023-04-06T10:09:53;1.10;;;1.00;;
20655;SDS011;10487;53.320;8.672;2023-04-06T10:12:56;2.00;;;1.23;;
20655;SDS011;10487;53.320;8.672;2023-04-06T10:15:59;2.00;;;1.40;;
20655;SDS011;10487;53.320;8.672;2023-04-06T10:19:22;1.40;;;1.17;;
20655;SDS011;10487;53.320;8.672;2023-04-06T10:22:34;1.25;;;0.80;;
20655;SDS011;10487;53.320;8.672;2023-04-06T10:25:53;1.27;;;1.00;;
20655;SDS011;10487;53.320;8.672;2023-04-06T10:29:02;1.17;;;1.08;;
20655;SDS011;10487;53.320;8.672;2023-04-06T10:32:05;1.48;;;1.23;;
20655;SDS011;10487;53.320;8.672;2023-04-06T10:38:09;1.20;;;0.80;;
20655;SDS011;10487;53.320;8.672;2023-04-06T10:41:11;1.67;;;1.50;;
20655;SDS011;10487;53.320;8.672;2023-04-06T10:44:25;1.30;;;1.10;;
20655;SDS011;10487;53.320;8.672;2023-04-06T10:47:27;1.00;;;0.90;;
20655;SDS011;10487;53.320;8.672;2023-04-06T10:50:28;0.90;;;0.80;;
20655;SDS011;10487;53.320;8.672;2023-04-06T10:53:30;0.60;;;0.60;;
20655;SDS011;10487;53.320;8.672;2023-04-06T10:56:36;0.80;;;0.77;;
20655;SDS011;10487;53.320;8.672;2023-04-06T10:59:41;0.80;;;0.80;;
20655;SDS011;10487;53.320;8.672;2023-04-06T11:02:43;1.40;;;1.20;;
20655;SDS011;10487;53.320;8.672;2023-04-06T11:05:45;0.70;;;0.70;;
20655;SDS011;10487;53.320;8.672;2023-04-06T11:08:51;0.60;;;0.60;;
20655;SDS011;10487;53.320;8.672;2023-04-06T11:11:53;0.70;;;0.60;;
20655;SDS011;10487;53.320;8.672;2023-04-06T11:14:56;1.58;;;1.15;;
20655;SDS011;10487;53.320;8.672;2023-04-06T11:18:07;0.63;;;0.60;;
20655;SDS011;10487;53.320;8.672;2023-04-06T11:21:09;1.05;;;0.90;;
20655;SDS011;10487;53.320;8.672;2023-04-06T11:27:14;2.03;;;1.80;;
20655;SDS011;10487;53.320;8.672;2023-04-06T11:30:17;1.02;;;0.90;;
20655;SDS011;10487;53.320;8.672;2023-04-06T11:33:22;1.25;;;1.00;;
20655;SDS011;10487;53.320;8.672;2023-04-06T11:36:27;1.60;;;1.20;;
20655;SDS011;10487;53.320;8.672;2023-04-06T11:39:31;1.92;;;0.90;;
20655;SDS011;10487;53.320;8.672;2023-04-06T11:42:38;0.70;;;0.70;;
20655;SDS011;10487;53.320;8.672;2023-04-06T11:45:43;1.58;;;0.90;;
20655;SDS011;10487;53.320;8.672;2023-04-06T11:48:45;1.27;;;1.17;;
20655;SDS011;10487;53.320;8.672;2023-04-06T11:51:47;1.60;;;1.48;;
20655;SDS011;10487;53.320;8.672;2023-04-06T11:54:49;1.55;;;1.27;;
20655;SDS011;10487;53.320;8.672;2023-04-06T11:57:53;1.20;;;1.10;;
20655;SDS011;10487;53.320;8.672;2023-04-06T12:01:02;1.30;;;1.00;;
20655;SDS011;10487;53.320;8.672;2023-04-06T12:04:04;0.70;;;0.70;;
20655;SDS011;10487;53.320;8.672;2023-04-06T12:07:08;0.57;;;0.50;;
20655;SDS011;10487;53.320;8.672;2023-04-06T12:10:10;1.00;;;0.45;;
20655;SDS011;10487;53.320;8.672;2023-04-06T12:13:12;0.60;;;0.60;;
20655;SDS011;10487;53.320;8.672;2023-04-06T12:16:13;0.50;;;0.50;;
20655;SDS011;10487;53.320;8.672;2023-04-06T12:19:15;0.80;;;0.80;;
20655;SDS011;10487;53.320;8.672;2023-04-06T12:22:17;1.52;;;1.30;;
20655;SDS011;10487;53.320;8.672;2023-04-06T12:25:19;1.20;;;1.10;;
20655;SDS011;10487;53.320;8.672;2023-04-06T12:28:21;1.20;;;1.10;;
20655;SDS011;10487;53.320;8.672;2023-04-06T12:31:27;0.95;;;0.85;;
20655;SDS011;10487;53.320;8.672;2023-04-06T12:34:28;1.23;;;1.10;;
20655;SDS011;10487;53.320;8.672;2023-04-06T12:37:30;1.63;;;1.25;;
20655;SDS011;10487;53.320;8.672;2023-04-06T12:40:35;1.17;;;0.60;;
20655;SDS011;10487;53.320;8.672;2023-04-06T12:43:41;1.10;;;0.55;;
20655;SDS011;10487;53.320;8.672;2023-04-06T12:46:44;1.15;;;1.00;;
20655;SDS011;10487;53.320;8.672;2023-04-06T12:49:46;1.35;;;1.10;;
20655;SDS011;10487;53.320;8.672;2023-04-06T12:52:48;0.80;;;0.63;;
20655;SDS011;10487;53.320;8.672;2023-04-06T12:55:49;0.60;;;0.50;;
20655;SDS011;10487;53.320;8.672;2023-04-06T12:58:51;0.30;;;0.30;;
20655;SDS011;10487;53.320;8.672;2023-04-06T13:01:53;0.30;;;0.30;;
20655;SDS011;10487;53.320;8.672;2023-04-06T13:04:55;0.45;;;0.40;;
20655;SDS011;10487;53.320;8.672;2023-04-06T13:07:57;0.40;;;0.40;;
20655;SDS011;10487;53.320;8.672;2023-04-06T13:10:58;0.73;;;0.40;;
20655;SDS011;10487;53.320;8.672;2023-04-06T13:14:00;1.98;;;0.93;;
20655;SDS011;10487;53.320;8.672;2023-04-06T13:17:01;1.73;;;1.38;;
20655;SDS011;10487;53.320;8.672;2023-04-06T13:20:03;1.13;;;1.02;;
20655;SDS011;10487;53.320;8.672;2023-04-06T13:23:05;1.10;;;0.90;;
20655;SDS011;10487;53.320;8.672;2023-04-06T13:26:07;0.73;;;0.60;;
20655;SDS011;10487;53.320;8.672;2023-04-06T13:29:09;0.82;;;0.80;;
20655;SDS011;10487;53.320;8.672;2023-04-06T13:32:10;0.60;;;0.60;;
20655;SDS011;10487;53.320;8.672;2023-04-06T13:35:12;1.02;;;0.93;;
20655;SDS011;10487;53.320;8.672;2023-04-06T13:38:14;1.17;;;1.08;;
20655;SDS011;10487;53.320;8.672;2023-04-06T13:41:19;1.10;;;0.88;;
20655;SDS011;10487;53.320;8.672;2023-04-06T13:44:24;1.00;;;0.90;;
20655;SDS011;10487;53.320;8.672;2023-04-06T13:47:26;0.50;;;0.43;;
20655;SDS011;10487;53.320;8.672;2023-04-06T13:50:28;1.42;;;1.00;;
20655;SDS011;10487;53.320;8.672;2023-04-06T13:53:30;0.50;;;0.50;;
20655;SDS011;10487;53.320;8.672;2023-04-06T13:56:32;0.70;;;0.70;;
20655;SDS011;10487;53.320;8.672;2023-04-06T13:59:36;0.50;;;0.50;;
20655;SDS011;10487;53.320;8.672;2023-04-06T14:02:39;0.60;;;0.55;;
20655;SDS011;10487;53.320;8.672;2023-04-06T14:05:41;1.20;;;1.10;;
20655;SDS011;10487;53.320;8.672;2023-04-06T14:08:43;0.80;;;0.70;;
20655;SDS011;10487;53.320;8.672;2023-04-06T14:11:44;0.40;;;0.40;;
20655;SDS011;10487;53.320;8.672;2023-04-06T14:14:46;0.63;;;0.60;;
20655;SDS011;10487;53.320;8.672;2023-04-06T14:17:47;0.80;;;0.70;;
20655;SDS011;10487;53.320;8.672;2023-04-06T14:20:55;0.52;;;0.50;;
20655;SDS011;10487;53.320;8.672;2023-04-06T14:23:57;1.02;;;0.82;;
20655;SDS011;10487;53.320;8.672;2023-04-06T14:27:00;0.88;;;0.80;;
20655;SDS011;10487;53.320;8.672;2023-04-06T14:30:02;0.40;;;0.40;;
20655;SDS011;10487;53.320;8.672;2023-04-06T14:33:04;0.73;;;0.60;;
20655;SDS011;10487;53.320;8.672;2023-04-06T14:36:06;1.17;;;0.93;;
20655;SDS011;10487;53.320;8.672;2023-04-06T14:39:08;1.30;;;1.20;;
20655;SDS011;10487;53.320;8.672;2023-04-06T14:42:11;1.30;;;1.10;;
20655;SDS011;10487;53.320;8.672;2023-04-06T14:45:12;1.23;;;1.13;;
20655;SDS011;10487;53.320;8.672;2023-04-06T14:48:14;1.00;;;0.90;;
20655;SDS011;10487;53.320;8.672;2023-04-06T14:51:17;0.82;;;0.50;;
20655;SDS011;10487;53.320;8.672;2023-04-06T14:54:18;0.70;;;0.60;;
20655;SDS011;10487;53.320;8.672;2023-04-06T14:57:20;0.90;;;0.80;;
20655;SDS011;10487;53.320;8.672;2023-04-06T15:00:21;0.93;;;0.80;;
20655;SDS011;10487;53.320;8.672;2023-04-06T15:03:23;0.63;;;0.60;;
20655;SDS011;10487;53.320;8.672;2023-04-06T15:06:26;0.47;;;0.40;;
20655;SDS011;10487;53.320;8.672;2023-04-06T15:09:28;1.17;;;0.90;;
20655;SDS011;10487;53.320;8.672;2023-04-06T15:12:30;1.45;;;1.00;;
20655;SDS011;10487;53.320;8.672;2023-04-06T15:15:33;1.85;;;1.05;;
20655;SDS011;10487;53.320;8.672;2023-04-06T15:18:35;0.80;;;0.77;;
20655;SDS011;10487;53.320;8.672;2023-04-06T15:21:36;1.20;;;1.10;;
20655;SDS011;10487;53.320;8.672;2023-04-06T15:24:38;1.20;;;1.10;;
20655;SDS011;10487;53.320;8.672;2023-04-06T15:27:39;1.88;;;1.60;;
20655;SDS011;10487;53.320;8.672;2023-04-06T15:30:41;0.77;;;0.70;;
20655;SDS011;10487;53.320;8.672;2023-04-06T15:33:43;0.60;;;0.55;;
20655;SDS011;10487;53.320;8.672;2023-04-06T15:36:45;1.08;;;0.93;;
20655;SDS011;10487;53.320;8.672;2023-04-06T15:39:46;1.77;;;1.40;;
20655;SDS011;10487;53.320;8.672;2023-04-06T15:42:48;1.73;;;1.48;;
20655;SDS011;10487;53.320;8.672;2023-04-06T15:45:50;0.77;;;0.77;;
20655;SDS011;10487;53.320;8.672;2023-04-06T15:48:53;0.60;;;0.60;;
20655;SDS011;10487;53.320;8.672;2023-04-06T15:51:55;0.50;;;0.50;;
20655;SDS011;10487;53.320;8.672;2023-04-06T15:54:57;0.73;;;0.73;;
20655;SDS011;10487;53.320;8.672;2023-04-06T15:57:59;1.15;;;0.77;;
20655;SDS011;10487;53.320;8.672;2023-04-06T16:01:01;1.00;;;0.90;;
20655;SDS011;10487;53.320;8.672;2023-04-06T16:04:11;1.75;;;1.40;;
20655;SDS011;10487;53.320;8.672;2023-04-06T16:07:15;1.70;;;1.48;;
20655;SDS011;10487;53.320;8.672;2023-04-06T16:10:16;1.52;;;1.40;;
20655;SDS011;10487;53.320;8.672;2023-04-06T16:13:18;0.90;;;0.80;;
20655;SDS011;10487;53.320;8.672;2023-04-06T16:16:22;0.70;;;0.60;;
20655;SDS011;10487;53.320;8.672;2023-04-06T16:19:24;0.50;;;0.50;;
20655;SDS011;10487;53.320;8.672;2023-04-06T16:22:26;0.40;;;0.40;;
20655;SDS011;10487;53.320;8.672;2023-04-06T16:25:28;0.50;;;0.50;;
20655;SDS011;10487;53.320;8.672;2023-04-06T16:28:30;0.47;;;0.47;;
20655;SDS011;10487;53.320;8.672;2023-04-06T16:31:33;0.47;;;0.47;;
20655;SDS011;10487;53.320;8.672;2023-04-06T16:34:34;0.50;;;0.50;;
20655;SDS011;10487;53.320;8.672;2023-04-06T16:37:36;0.77;;;0.60;;
20655;SDS011;10487;53.320;8.672;2023-04-06T16:40:39;0.70;;;0.70;;
20655;SDS011;10487;53.320;8.672;2023-04-06T16:43:41;0.50;;;0.40;;
20655;SDS011;10487;53.320;8.672;2023-04-06T16:46:42;0.45;;;0.45;;
20655;SDS011;10487;53.320;8.672;2023-04-06T16:49:44;0.45;;;0.30;;
20655;SDS011;10487;53.320;8.672;2023-04-06T16:52:46;0.32;;;0.32;;
20655;SDS011;10487;53.320;8.672;2023-04-06T16:55:48;0.40;;;0.40;;
20655;SDS011;10487;53.320;8.672;2023-04-06T16:58:49;0.60;;;0.32;;
20655;SDS011;10487;53.320;8.672;2023-04-06T17:01:51;0.20;;;0.20;;
20655;SDS011;10487;53.320;8.672;2023-04-06T17:04:53;0.50;;;0.40;;
20655;SDS011;10487;53.320;8.672;2023-04-06T17:07:54;0.40;;;0.40;;
20655;SDS011;10487;53.320;8.672;2023-04-06T17:10:56;0.30;;;0.30;;
20655;SDS011;10487;53.320;8.672;2023-04-06T17:14:02;0.68;;;0.50;;
20655;SDS011;10487;53.320;8.672;2023-04-06T17:17:04;0.30;;;0.30;;
20655;SDS011;10487;53.320;8.672;2023-04-06T17:20:07;0.40;;;0.40;;
20655;SDS011;10487;53.320;8.672;2023-04-06T17:23:09;0.38;;;0.38;;
20655;SDS011;10487;53.320;8.672;2023-04-06T17:26:10;0.70;;;0.50;;
20655;SDS011;10487;53.320;8.672;2023-04-06T17:29:12;0.35;;;0.35;;
20655;SDS011;10487;53.320;8.672;2023-04-06T17:32:14;0.40;;;0.40;;
20655;SDS011;10487;53.320;8.672;2023-04-06T17:35:16;0.30;;;0.30;;
20655;SDS011;10487;53.320;8.672;2023-04-06T17:38:18;0.25;;;0.25;;
20655;SDS011;10487;53.320;8.672;2023-04-06T17:41:20;0.28;;;0.28;;
20655;SDS011;10487;53.320;8.672;2023-04-06T17:44:21;0.20;;;0.20;;
20655;SDS011;10487;53.320;8.672;2023-04-06T17:47:23;0.20;;;0.20;;
20655;SDS011;10487;53.320;8.672;2023-04-06T17:50:26;0.20;;;0.20;;
20655;SDS011;10487;53.320;8.672;2023-04-06T17:53:27;0.25;;;0.25;;
20655;SDS011;10487;53.320;8.672;2023-04-06T17:56:34;0.20;;;0.20;;
20655;SDS011;10487;53.320;8.672;2023-04-06T17:59:36;0.30;;;0.30;;
20655;SDS011;10487;53.320;8.672;2023-04-06T18:02:37;0.28;;;0.28;;
20655;SDS011;10487;53.320;8.672;2023-04-06T18:05:39;0.22;;;0.22;;
20655;SDS011;10487;53.320;8.672;2023-04-06T18:08:41;0.30;;;0.30;;
20655;SDS011;10487;53.320;8.672;2023-04-06T18:11:43;0.75;;;0.70;;
20655;SDS011;10487;53.320;8.672;2023-04-06T18:14:45;0.40;;;0.40;;
20655;SDS011;10487;53.320;8.672;2023-04-06T18:17:48;0.40;;;0.40;;
20655;SDS011;10487;53.320;8.672;2023-04-06T18:20:50;0.40;;;0.30;;
20655;SDS011;10487;53.320;8.672;2023-04-06T18:23:52;0.30;;;0.30;;
20655;SDS011;10487;53.320;8.672;2023-04-06T18:26:55;0.20;;;0.20;;
20655;SDS011;10487;53.320;8.672;2023-04-06T18:29:57;0.55;;;0.40;;
20655;SDS011;10487;53.320;8.672;2023-04-06T18:33:01;0.30;;;0.30;;